Decoded Metar for LEDA (LLEIDA in SPAIN) (IATA:ILD) | Meteo·Mobile Aviation Weather
aviador You're here:

LEDA Decoded Metar

LLEIDA in SPAIN
Report Time2019-10-19 22:00:00
UTC Time2019-10-19 22:33:38
Flight Rules vfr VFR
Wind060° at 09 kt
W.Decomp.*RWY 13: 3.1 kt HW 8.5 kt LCW
Visibility9999 m
Phenomena:N/A
Clouds:N/A
Expected CloudBase > 800 ft AGL from Temp-Dew spread
CeilingNone
Temp16°C (ISA +3)
Dew Point14°C (88% RH)
AAT14.0°C
QNH1007 hPa
Density Alt1,962 ft
Elevation1,152 ft
Report Wrong Elevation
Raw Report
LEDA 192200Z AUTO 06009KT 9999 NCD 16/14 Q1007=

Extra information for LEDA:More info

Metar Taf Metar & Taf Last 4 Metars F.Rules Stats Wind Profile Meteogram Temp Stats Airport Information Weather charts Add Link Nearby VenuesMetar ALERT Operation Metar Decoded Social comments